sensor_id;sensor_type;location;lat;lon;timestamp;temperature;humidity
35603;DHT22;21725;50.836;4.368;2022-09-03T00:00:54;23.70;84.20
35603;DHT22;21725;50.836;4.368;2022-09-03T00:03:28;23.50;84.50
35603;DHT22;21725;50.836;4.368;2022-09-03T00:06:20;23.60;82.90
35603;DHT22;21725;50.836;4.368;2022-09-03T00:08:57;23.60;82.50
35603;DHT22;21725;50.836;4.368;2022-09-03T00:11:37;23.50;82.10
35603;DHT22;21725;50.836;4.368;2022-09-03T00:14:11;23.50;81.50
35603;DHT22;21725;50.836;4.368;2022-09-03T00:16:59;23.50;81.70
35603;DHT22;21725;50.836;4.368;2022-09-03T00:19:40;23.60;81.80
35603;DHT22;21725;50.836;4.368;2022-09-03T00:22:17;23.50;81.60
35603;DHT22;21725;50.836;4.368;2022-09-03T00:24:45;23.50;81.70
35603;DHT22;21725;50.836;4.368;2022-09-03T00:27:22;23.40;80.80
35603;DHT22;21725;50.836;4.368;2022-09-03T00:30:11;23.50;79.80
35603;DHT22;21725;50.836;4.368;2022-09-03T00:35:24;23.50;79.60
35603;DHT22;21725;50.836;4.368;2022-09-03T00:37:53;23.50;79.00
35603;DHT22;21725;50.836;4.368;2022-09-03T00:43:45;23.50;78.50
35603;DHT22;21725;50.836;4.368;2022-09-03T00:52:17;23.20;78.30
35603;DHT22;21725;50.836;4.368;2022-09-03T00:54:52;23.10;78.10
35603;DHT22;21725;50.836;4.368;2022-09-03T01:00:03;23.10;77.30
35603;DHT22;21725;50.836;4.368;2022-09-03T01:20:20;23.40;77.40
35603;DHT22;21725;50.836;4.368;2022-09-03T01:29:01;23.50;77.80
35603;DHT22;21725;50.836;4.368;2022-09-03T01:31:48;23.40;78.20
35603;DHT22;21725;50.836;4.368;2022-09-03T01:43:21;23.30;79.70
35603;DHT22;21725;50.836;4.368;2022-09-03T01:46:35;23.20;80.00
35603;DHT22;21725;50.836;4.368;2022-09-03T01:49:09;23.20;80.40
35603;DHT22;21725;50.836;4.368;2022-09-03T01:51:40;23.40;80.90
35603;DHT22;21725;50.836;4.368;2022-09-03T02:00:16;23.40;81.70
35603;DHT22;21725;50.836;4.368;2022-09-03T02:02:46;23.50;82.40
35603;DHT22;21725;50.836;4.368;2022-09-03T02:07:50;23.30;83.20
35603;DHT22;21725;50.836;4.368;2022-09-03T02:10:25;23.30;83.60
35603;DHT22;21725;50.836;4.368;2022-09-03T02:13:05;23.30;84.20
35603;DHT22;21725;50.836;4.368;2022-09-03T02:15:32;23.20;84.80
35603;DHT22;21725;50.836;4.368;2022-09-03T02:18:02;23.10;85.50
35603;DHT22;21725;50.836;4.368;2022-09-03T02:20:30;23.00;85.90
35603;DHT22;21725;50.836;4.368;2022-09-03T02:22:57;22.90;86.10
35603;DHT22;21725;50.836;4.368;2022-09-03T02:25:38;22.90;86.50
35603;DHT22;21725;50.836;4.368;2022-09-03T02:28:06;23.00;86.50
35603;DHT22;21725;50.836;4.368;2022-09-03T02:30:33;23.10;87.00
35603;DHT22;21725;50.836;4.368;2022-09-03T02:32:59;23.10;86.40
35603;DHT22;21725;50.836;4.368;2022-09-03T02:35:26;23.20;86.60
35603;DHT22;21725;50.836;4.368;2022-09-03T02:37:51;23.20;86.30
35603;DHT22;21725;50.836;4.368;2022-09-03T02:40:17;23.20;85.50
35603;DHT22;21725;50.836;4.368;2022-09-03T02:42:44;23.30;85.70
35603;DHT22;21725;50.836;4.368;2022-09-03T02:45:27;23.20;85.60
35603;DHT22;21725;50.836;4.368;2022-09-03T02:47:58;23.20;86.00
35603;DHT22;21725;50.836;4.368;2022-09-03T02:50:25;23.20;85.70
35603;DHT22;21725;50.836;4.368;2022-09-03T02:52:51;23.20;85.90
35603;DHT22;21725;50.836;4.368;2022-09-03T02:55:17;23.20;85.90
35603;DHT22;21725;50.836;4.368;2022-09-03T02:57:44;23.20;85.40
35603;DHT22;21725;50.836;4.368;2022-09-03T03:00:11;23.30;85.40
35603;DHT22;21725;50.836;4.368;2022-09-03T03:02:37;23.40;85.60
35603;DHT22;21725;50.836;4.368;2022-09-03T03:05:04;23.40;85.80
35603;DHT22;21725;50.836;4.368;2022-09-03T03:07:34;23.30;86.00
35603;DHT22;21725;50.836;4.368;2022-09-03T03:10:01;23.30;86.10
35603;DHT22;21725;50.836;4.368;2022-09-03T03:12:27;23.30;86.10
35603;DHT22;21725;50.836;4.368;2022-09-03T03:14:55;23.30;86.10
35603;DHT22;21725;50.836;4.368;2022-09-03T03:17:21;23.30;86.50
35603;DHT22;21725;50.836;4.368;2022-09-03T03:19:47;23.20;86.70
35603;DHT22;21725;50.836;4.368;2022-09-03T03:22:13;23.30;86.60
35603;DHT22;21725;50.836;4.368;2022-09-03T03:24:39;23.20;86.90
35603;DHT22;21725;50.836;4.368;2022-09-03T03:27:05;23.30;87.00
35603;DHT22;21725;50.836;4.368;2022-09-03T03:29:31;23.10;87.50
35603;DHT22;21725;50.836;4.368;2022-09-03T03:31:58;23.10;88.00
35603;DHT22;21725;50.836;4.368;2022-09-03T03:34:24;23.10;88.00
35603;DHT22;21725;50.836;4.368;2022-09-03T03:36:51;23.20;87.80
35603;DHT22;21725;50.836;4.368;2022-09-03T03:39:17;23.20;87.90
35603;DHT22;21725;50.836;4.368;2022-09-03T03:41:43;23.20;87.40
35603;DHT22;21725;50.836;4.368;2022-09-03T03:44:08;23.30;87.20
35603;DHT22;21725;50.836;4.368;2022-09-03T03:46:37;23.30;87.10
35603;DHT22;21725;50.836;4.368;2022-09-03T03:49:04;23.30;86.80
35603;DHT22;21725;50.836;4.368;2022-09-03T03:51:31;23.40;86.70
35603;DHT22;21725;50.836;4.368;2022-09-03T03:53:57;23.50;87.30
35603;DHT22;21725;50.836;4.368;2022-09-03T03:56:24;23.40;88.00
35603;DHT22;21725;50.836;4.368;2022-09-03T03:58:51;23.20;89.30
35603;DHT22;21725;50.836;4.368;2022-09-03T04:01:20;23.10;90.10
35603;DHT22;21725;50.836;4.368;2022-09-03T04:03:45;23.10;91.10
35603;DHT22;21725;50.836;4.368;2022-09-03T04:29:23;20.10;97.50
35603;DHT22;21725;50.836;4.368;2022-09-03T04:31:50;19.80;98.70
35603;DHT22;21725;50.836;4.368;2022-09-03T04:34:34;20.00;99.20
35603;DHT22;21725;50.836;4.368;2022-09-03T04:36:59;20.40;98.50
35603;DHT22;21725;50.836;4.368;2022-09-03T04:39:25;20.90;98.00
35603;DHT22;21725;50.836;4.368;2022-09-03T04:41:51;21.20;97.60
35603;DHT22;21725;50.836;4.368;2022-09-03T04:44:17;21.40;96.40
35603;DHT22;21725;50.836;4.368;2022-09-03T04:46:45;21.60;96.20
35603;DHT22;21725;50.836;4.368;2022-09-03T04:49:12;21.70;96.10
35603;DHT22;21725;50.836;4.368;2022-09-03T04:51:40;22.00;96.40
35603;DHT22;21725;50.836;4.368;2022-09-03T04:54:06;21.90;95.70
35603;DHT22;21725;50.836;4.368;2022-09-03T04:56:34;21.90;94.90
35603;DHT22;21725;50.836;4.368;2022-09-03T04:59:04;22.00;94.80
35603;DHT22;21725;50.836;4.368;2022-09-03T05:01:31;22.20;94.90
35603;DHT22;21725;50.836;4.368;2022-09-03T05:03:58;22.30;94.60
35603;DHT22;21725;50.836;4.368;2022-09-03T05:06:25;22.20;94.30
35603;DHT22;21725;50.836;4.368;2022-09-03T05:08:52;22.10;94.70
35603;DHT22;21725;50.836;4.368;2022-09-03T05:11:19;22.40;94.60
35603;DHT22;21725;50.836;4.368;2022-09-03T05:13:49;22.40;94.50
35603;DHT22;21725;50.836;4.368;2022-09-03T05:16:16;22.40;94.90
35603;DHT22;21725;50.836;4.368;2022-09-03T05:18:43;22.40;95.20
35603;DHT22;21725;50.836;4.368;2022-09-03T05:21:11;22.50;95.10
35603;DHT22;21725;50.836;4.368;2022-09-03T05:23:41;22.50;94.80
35603;DHT22;21725;50.836;4.368;2022-09-03T05:26:10;22.60;94.10
35603;DHT22;21725;50.836;4.368;2022-09-03T05:28:37;22.70;94.20
35603;DHT22;21725;50.836;4.368;2022-09-03T05:31:09;22.80;94.50
35603;DHT22;21725;50.836;4.368;2022-09-03T05:33:39;22.80;94.50
35603;DHT22;21725;50.836;4.368;2022-09-03T05:36:18;22.70;94.50
35603;DHT22;21725;50.836;4.368;2022-09-03T05:38:46;22.90;94.20
35603;DHT22;21725;50.836;4.368;2022-09-03T05:41:13;22.80;94.30
35603;DHT22;21725;50.836;4.368;2022-09-03T05:43:39;22.80;94.30
35603;DHT22;21725;50.836;4.368;2022-09-03T05:46:10;22.90;94.60
35603;DHT22;21725;50.836;4.368;2022-09-03T05:48:43;22.80;94.70
35603;DHT22;21725;50.836;4.368;2022-09-03T05:51:12;22.60;94.80
35603;DHT22;21725;50.836;4.368;2022-09-03T05:53:41;22.50;95.40
35603;DHT22;21725;50.836;4.368;2022-09-03T05:56:13;22.60;95.60
35603;DHT22;21725;50.836;4.368;2022-09-03T05:58:45;22.80;95.30
35603;DHT22;21725;50.836;4.368;2022-09-03T06:01:15;22.80;95.20
35603;DHT22;21725;50.836;4.368;2022-09-03T06:03:43;22.80;94.70
35603;DHT22;21725;50.836;4.368;2022-09-03T06:06:09;22.80;94.80
35603;DHT22;21725;50.836;4.368;2022-09-03T06:08:36;22.90;93.90
35603;DHT22;21725;50.836;4.368;2022-09-03T06:11:05;22.80;94.00
35603;DHT22;21725;50.836;4.368;2022-09-03T06:13:33;22.80;94.10
35603;DHT22;21725;50.836;4.368;2022-09-03T06:16:01;22.70;93.80
35603;DHT22;21725;50.836;4.368;2022-09-03T06:18:28;22.80;94.10
35603;DHT22;21725;50.836;4.368;2022-09-03T06:21:02;22.90;93.00
35603;DHT22;21725;50.836;4.368;2022-09-03T06:23:29;22.90;93.20
35603;DHT22;21725;50.836;4.368;2022-09-03T06:26:02;22.80;92.70
35603;DHT22;21725;50.836;4.368;2022-09-03T06:28:30;22.80;92.50
35603;DHT22;21725;50.836;4.368;2022-09-03T06:30:59;22.70;93.20
35603;DHT22;21725;50.836;4.368;2022-09-03T06:33:26;22.80;92.50
35603;DHT22;21725;50.836;4.368;2022-09-03T06:35:53;22.80;92.60
35603;DHT22;21725;50.836;4.368;2022-09-03T06:38:23;22.70;93.10
35603;DHT22;21725;50.836;4.368;2022-09-03T06:40:56;22.70;93.00
35603;DHT22;21725;50.836;4.368;2022-09-03T06:43:23;22.80;92.50
35603;DHT22;21725;50.836;4.368;2022-09-03T06:48:39;22.80;92.10
35603;DHT22;21725;50.836;4.368;2022-09-03T06:51:07;22.80;92.00
35603;DHT22;21725;50.836;4.368;2022-09-03T06:53:36;22.90;91.90
35603;DHT22;21725;50.836;4.368;2022-09-03T06:56:05;23.10;91.30
35603;DHT22;21725;50.836;4.368;2022-09-03T06:58:32;23.20;91.00
35603;DHT22;21725;50.836;4.368;2022-09-03T07:07:10;23.70;91.30
35603;DHT22;21725;50.836;4.368;2022-09-03T07:09:38;23.70;90.70
35603;DHT22;21725;50.836;4.368;2022-09-03T07:12:07;23.90;90.00
35603;DHT22;21725;50.836;4.368;2022-09-03T07:14:35;23.80;90.00
35603;DHT22;21725;50.836;4.368;2022-09-03T07:17:03;23.80;88.10
35603;DHT22;21725;50.836;4.368;2022-09-03T07:19:29;23.50;90.10
35603;DHT22;21725;50.836;4.368;2022-09-03T07:21:57;23.50;90.40
35603;DHT22;21725;50.836;4.368;2022-09-03T07:24:27;23.50;90.70
35603;DHT22;21725;50.836;4.368;2022-09-03T07:27:11;23.60;90.10
35603;DHT22;21725;50.836;4.368;2022-09-03T07:29:37;23.50;90.30
35603;DHT22;21725;50.836;4.368;2022-09-03T07:32:09;23.50;90.30
35603;DHT22;21725;50.836;4.368;2022-09-03T07:34:35;23.60;90.00
35603;DHT22;21725;50.836;4.368;2022-09-03T07:37:00;23.50;90.20
35603;DHT22;21725;50.836;4.368;2022-09-03T07:39:36;23.50;90.30
35603;DHT22;21725;50.836;4.368;2022-09-03T07:42:09;23.40;90.30
35603;DHT22;21725;50.836;4.368;2022-09-03T07:44:52;23.60;90.20
35603;DHT22;21725;50.836;4.368;2022-09-03T07:47:30;23.60;90.40
35603;DHT22;21725;50.836;4.368;2022-09-03T07:49:58;23.60;90.50
35603;DHT22;21725;50.836;4.368;2022-09-03T07:52:27;23.80;88.90
35603;DHT22;21725;50.836;4.368;2022-09-03T07:54:59;23.70;89.50
35603;DHT22;21725;50.836;4.368;2022-09-03T07:57:27;23.80;89.60
35603;DHT22;21725;50.836;4.368;2022-09-03T08:00:00;23.90;88.50
35603;DHT22;21725;50.836;4.368;2022-09-03T08:02:52;24.00;88.50
35603;DHT22;21725;50.836;4.368;2022-09-03T08:05:20;24.00;88.00
35603;DHT22;21725;50.836;4.368;2022-09-03T08:07:47;24.20;87.80
35603;DHT22;21725;50.836;4.368;2022-09-03T08:10:16;24.30;87.80
35603;DHT22;21725;50.836;4.368;2022-09-03T08:12:47;24.20;88.60
35603;DHT22;21725;50.836;4.368;2022-09-03T08:15:17;24.40;87.50
35603;DHT22;21725;50.836;4.368;2022-09-03T08:17:47;24.50;87.50
35603;DHT22;21725;50.836;4.368;2022-09-03T08:20:18;24.40;87.70
35603;DHT22;21725;50.836;4.368;2022-09-03T08:22:47;24.60;87.40
35603;DHT22;21725;50.836;4.368;2022-09-03T08:25:26;24.60;88.00
35603;DHT22;21725;50.836;4.368;2022-09-03T08:27:57;24.80;86.90
35603;DHT22;21725;50.836;4.368;2022-09-03T08:30:48;25.00;86.80
35603;DHT22;21725;50.836;4.368;2022-09-03T08:33:19;25.00;87.30
35603;DHT22;21725;50.836;4.368;2022-09-03T08:36:22;25.10;87.00
35603;DHT22;21725;50.836;4.368;2022-09-03T08:38:58;25.10;87.50
35603;DHT22;21725;50.836;4.368;2022-09-03T08:45:00;25.30;86.60
35603;DHT22;21725;50.836;4.368;2022-09-03T08:47:54;25.30;86.80
35603;DHT22;21725;50.836;4.368;2022-09-03T08:50:28;25.30;87.20
35603;DHT22;21725;50.836;4.368;2022-09-03T08:56:17;25.40;86.90
35603;DHT22;21725;50.836;4.368;2022-09-03T08:59:04;25.40;86.60
35603;DHT22;21725;50.836;4.368;2022-09-03T09:05:04;25.50;87.60
35603;DHT22;21725;50.836;4.368;2022-09-03T09:07:58;25.70;86.90
35603;DHT22;21725;50.836;4.368;2022-09-03T09:11:05;25.80;87.40
35603;DHT22;21725;50.836;4.368;2022-09-03T09:20:14;25.80;88.50
35603;DHT22;21725;50.836;4.368;2022-09-03T09:22:56;25.90;88.30
35603;DHT22;21725;50.836;4.368;2022-09-03T09:25:24;26.00;88.60
35603;DHT22;21725;50.836;4.368;2022-09-03T09:27:53;26.20;87.70
35603;DHT22;21725;50.836;4.368;2022-09-03T09:30:25;26.20;87.00
35603;DHT22;21725;50.836;4.368;2022-09-03T09:32:53;26.10;87.40
35603;DHT22;21725;50.836;4.368;2022-09-03T09:35:23;26.30;87.50
35603;DHT22;21725;50.836;4.368;2022-09-03T09:37:53;26.20;87.70
35603;DHT22;21725;50.836;4.368;2022-09-03T09:40:43;26.30;87.50
35603;DHT22;21725;50.836;4.368;2022-09-03T09:43:16;26.30;87.40
35603;DHT22;21725;50.836;4.368;2022-09-03T09:52:14;26.30;87.90
35603;DHT22;21725;50.836;4.368;2022-09-03T10:02:01;26.60;88.70
35603;DHT22;21725;50.836;4.368;2022-09-03T10:04:36;26.60;88.00
35603;DHT22;21725;50.836;4.368;2022-09-03T10:56:38;27.10;87.50
35603;DHT22;21725;50.836;4.368;2022-09-03T10:59:26;27.10;88.10
35603;DHT22;21725;50.836;4.368;2022-09-03T11:02:00;27.30;87.40
35603;DHT22;21725;50.836;4.368;2022-09-03T11:07:12;27.60;86.30
35603;DHT22;21725;50.836;4.368;2022-09-03T11:09:45;27.40;86.90
35603;DHT22;21725;50.836;4.368;2022-09-03T11:15:11;27.80;85.30
35603;DHT22;21725;50.836;4.368;2022-09-03T11:17:57;27.70;85.50
35603;DHT22;21725;50.836;4.368;2022-09-03T11:20:26;27.70;85.30
35603;DHT22;21725;50.836;4.368;2022-09-03T11:22:56;27.80;85.50
35603;DHT22;21725;50.836;4.368;2022-09-03T11:25:34;28.00;84.00
35603;DHT22;21725;50.836;4.368;2022-09-03T11:28:39;28.40;82.50
35603;DHT22;21725;50.836;4.368;2022-09-03T11:34:13;28.20;82.30
35603;DHT22;21725;50.836;4.368;2022-09-03T11:36:42;28.10;81.90
35603;DHT22;21725;50.836;4.368;2022-09-03T11:40:02;27.80;82.70
35603;DHT22;21725;50.836;4.368;2022-09-03T11:42:38;27.80;83.90
35603;DHT22;21725;50.836;4.368;2022-09-03T11:47:51;27.50;83.90
35603;DHT22;21725;50.836;4.368;2022-09-03T11:50:26;27.80;83.30
35603;DHT22;21725;50.836;4.368;2022-09-03T11:53:38;28.00;82.40
35603;DHT22;21725;50.836;4.368;2022-09-03T11:55:58;28.30;81.90
35603;DHT22;21725;50.836;4.368;2022-09-03T11:58:38;28.10;81.90
35603;DHT22;21725;50.836;4.368;2022-09-03T12:01:10;28.00;81.80
35603;DHT22;21725;50.836;4.368;2022-09-03T12:03:55;28.20;81.50
35603;DHT22;21725;50.836;4.368;2022-09-03T12:09:50;28.30;81.50
35603;DHT22;21725;50.836;4.368;2022-09-03T12:18:04;29.00;80.40
35603;DHT22;21725;50.836;4.368;2022-09-03T12:23:34;29.00;80.90
35603;DHT22;21725;50.836;4.368;2022-09-03T12:26:07;29.40;80.00
35603;DHT22;21725;50.836;4.368;2022-09-03T12:28:38;29.50;79.70
35603;DHT22;21725;50.836;4.368;2022-09-03T12:34:19;29.50;79.10
35603;DHT22;21725;50.836;4.368;2022-09-03T12:36:52;29.50;78.90
35603;DHT22;21725;50.836;4.368;2022-09-03T12:39:25;29.10;79.80
35603;DHT22;21725;50.836;4.368;2022-09-03T12:42:03;29.10;79.50
35603;DHT22;21725;50.836;4.368;2022-09-03T12:50:42;29.30;79.10
35603;DHT22;21725;50.836;4.368;2022-09-03T12:53:21;29.30;78.70
35603;DHT22;21725;50.836;4.368;2022-09-03T12:55:53;29.40;78.60
35603;DHT22;21725;50.836;4.368;2022-09-03T13:02:15;29.50;78.50
35603;DHT22;21725;50.836;4.368;2022-09-03T13:04:53;29.30;78.00
35603;DHT22;21725;50.836;4.368;2022-09-03T13:07:31;29.10;78.10
35603;DHT22;21725;50.836;4.368;2022-09-03T13:10:05;29.40;78.50
35603;DHT22;21725;50.836;4.368;2022-09-03T13:12:43;29.30;77.70
35603;DHT22;21725;50.836;4.368;2022-09-03T13:15:18;28.90;78.50
35603;DHT22;21725;50.836;4.368;2022-09-03T13:18:23;28.70;78.90
35603;DHT22;21725;50.836;4.368;2022-09-03T13:32:40;29.10;76.90
35603;DHT22;21725;50.836;4.368;2022-09-03T13:35:27;29.50;76.10
35603;DHT22;21725;50.836;4.368;2022-09-03T13:37:58;29.50;76.30
35603;DHT22;21725;50.836;4.368;2022-09-03T13:43:05;29.60;76.10
35603;DHT22;21725;50.836;4.368;2022-09-03T13:45:59;29.60;76.00
35603;DHT22;21725;50.836;4.368;2022-09-03T13:48:37;29.60;75.70
35603;DHT22;21725;50.836;4.368;2022-09-03T13:51:31;29.60;75.70
35603;DHT22;21725;50.836;4.368;2022-09-03T13:54:27;29.50;76.10
35603;DHT22;21725;50.836;4.368;2022-09-03T13:57:15;29.50;75.70
35603;DHT22;21725;50.836;4.368;2022-09-03T14:05:04;29.40;74.90
35603;DHT22;21725;50.836;4.368;2022-09-03T14:07:45;29.30;75.20
35603;DHT22;21725;50.836;4.368;2022-09-03T14:12:43;29.10;75.40
35603;DHT22;21725;50.836;4.368;2022-09-03T14:15:19;29.20;75.70
35603;DHT22;21725;50.836;4.368;2022-09-03T14:25:27;28.80;76.40
35603;DHT22;21725;50.836;4.368;2022-09-03T14:27:54;28.50;76.60
35603;DHT22;21725;50.836;4.368;2022-09-03T14:30:48;28.70;76.70
35603;DHT22;21725;50.836;4.368;2022-09-03T14:36:31;28.90;76.20
35603;DHT22;21725;50.836;4.368;2022-09-03T14:41:45;28.80;77.50
35603;DHT22;21725;50.836;4.368;2022-09-03T14:44:31;28.50;80.50
35603;DHT22;21725;50.836;4.368;2022-09-03T14:50:14;28.10;83.80
35603;DHT22;21725;50.836;4.368;2022-09-03T14:52:58;28.00;89.00
35603;DHT22;21725;50.836;4.368;2022-09-03T14:55:58;28.00;85.50
35603;DHT22;21725;50.836;4.368;2022-09-03T14:58:40;28.00;84.60
35603;DHT22;21725;50.836;4.368;2022-09-03T15:01:28;27.70;85.70
35603;DHT22;21725;50.836;4.368;2022-09-03T15:04:18;27.60;88.80
35603;DHT22;21725;50.836;4.368;2022-09-03T15:07:15;27.70;83.90
35603;DHT22;21725;50.836;4.368;2022-09-03T15:09:59;27.50;85.50
35603;DHT22;21725;50.836;4.368;2022-09-03T15:15:04;27.10;87.90
35603;DHT22;21725;50.836;4.368;2022-09-03T15:31:24;27.10;90.00
35603;DHT22;21725;50.836;4.368;2022-09-03T15:34:02;27.40;90.80
35603;DHT22;21725;50.836;4.368;2022-09-03T15:36:42;27.60;90.40
35603;DHT22;21725;50.836;4.368;2022-09-03T15:39:18;27.80;90.50
35603;DHT22;21725;50.836;4.368;2022-09-03T15:42:25;27.70;88.00
35603;DHT22;21725;50.836;4.368;2022-09-03T15:47:54;27.80;88.60
35603;DHT22;21725;50.836;4.368;2022-09-03T15:50:33;27.50;90.50
35603;DHT22;21725;50.836;4.368;2022-09-03T15:56:24;26.70;91.80
35603;DHT22;21725;50.836;4.368;2022-09-03T15:59:26;26.60;91.90
35603;DHT22;21725;50.836;4.368;2022-09-03T16:28:17;24.90;93.70
35603;DHT22;21725;50.836;4.368;2022-09-03T16:36:32;25.30;94.30
35603;DHT22;21725;50.836;4.368;2022-09-03T16:45:17;26.10;91.80
35603;DHT22;21725;50.836;4.368;2022-09-03T16:48:08;26.30;91.50
35603;DHT22;21725;50.836;4.368;2022-09-03T16:50:55;26.40;90.30
35603;DHT22;21725;50.836;4.368;2022-09-03T16:54:00;26.40;90.30
35603;DHT22;21725;50.836;4.368;2022-09-03T17:07:50;27.00;91.10
35603;DHT22;21725;50.836;4.368;2022-09-03T17:10:44;27.10;91.30
35603;DHT22;21725;50.836;4.368;2022-09-03T17:16:34;27.10;91.40
35603;DHT22;21725;50.836;4.368;2022-09-03T17:24:52;26.80;90.70
35603;DHT22;21725;50.836;4.368;2022-09-03T17:27:56;26.70;90.90
35603;DHT22;21725;50.836;4.368;2022-09-03T17:36:04;26.10;92.00
35603;DHT22;21725;50.836;4.368;2022-09-03T17:41:38;26.00;91.90
35603;DHT22;21725;50.836;4.368;2022-09-03T17:49:55;25.60;92.20
35603;DHT22;21725;50.836;4.368;2022-09-03T17:55:20;25.80;92.70
35603;DHT22;21725;50.836;4.368;2022-09-03T17:57:53;25.80;92.60
35603;DHT22;21725;50.836;4.368;2022-09-03T18:03:23;25.60;92.70
35603;DHT22;21725;50.836;4.368;2022-09-03T18:05:56;25.60;92.80
35603;DHT22;21725;50.836;4.368;2022-09-03T18:11:39;25.50;92.80
35603;DHT22;21725;50.836;4.368;2022-09-03T18:14:33;25.30;92.90
35603;DHT22;21725;50.836;4.368;2022-09-03T18:19:45;25.30;93.30
35603;DHT22;21725;50.836;4.368;2022-09-03T18:22:55;25.30;93.50
35603;DHT22;21725;50.836;4.368;2022-09-03T18:25:46;25.30;93.50
35603;DHT22;21725;50.836;4.368;2022-09-03T18:31:43;25.30;91.90
35603;DHT22;21725;50.836;4.368;2022-09-03T18:34:34;25.10;92.10
35603;DHT22;21725;50.836;4.368;2022-09-03T18:37:22;25.10;92.80
35603;DHT22;21725;50.836;4.368;2022-09-03T18:40:08;25.30;92.10
35603;DHT22;21725;50.836;4.368;2022-09-03T18:46:16;25.20;92.30
35603;DHT22;21725;50.836;4.368;2022-09-03T18:49:34;25.10;92.50
35603;DHT22;21725;50.836;4.368;2022-09-03T18:52:26;25.00;92.10
35603;DHT22;21725;50.836;4.368;2022-09-03T19:01:04;24.80;92.50
35603;DHT22;21725;50.836;4.368;2022-09-03T19:07:03;24.70;92.40
35603;DHT22;21725;50.836;4.368;2022-09-03T19:12:50;24.70;92.70
35603;DHT22;21725;50.836;4.368;2022-09-03T19:15:48;24.60;92.80
35603;DHT22;21725;50.836;4.368;2022-09-03T19:21:38;24.60;92.70
35603;DHT22;21725;50.836;4.368;2022-09-03T19:24:29;24.60;92.90
35603;DHT22;21725;50.836;4.368;2022-09-03T19:27:16;24.60;92.80
35603;DHT22;21725;50.836;4.368;2022-09-03T19:30:13;24.60;93.10
35603;DHT22;21725;50.836;4.368;2022-09-03T19:42:12;24.40;93.40
35603;DHT22;21725;50.836;4.368;2022-09-03T19:45:25;24.30;93.50
35603;DHT22;21725;50.836;4.368;2022-09-03T19:51:21;24.30;93.10
35603;DHT22;21725;50.836;4.368;2022-09-03T19:54:07;24.40;93.10
35603;DHT22;21725;50.836;4.368;2022-09-03T19:56:55;24.40;93.00
35603;DHT22;21725;50.836;4.368;2022-09-03T19:59:41;24.40;92.80
35603;DHT22;21725;50.836;4.368;2022-09-03T20:02:26;24.40;92.70
35603;DHT22;21725;50.836;4.368;2022-09-03T20:05:16;24.40;92.60
35603;DHT22;21725;50.836;4.368;2022-09-03T20:08:01;24.40;92.60
35603;DHT22;21725;50.836;4.368;2022-09-03T20:10:49;24.40;92.60
35603;DHT22;21725;50.836;4.368;2022-09-03T20:13:18;24.40;92.50
35603;DHT22;21725;50.836;4.368;2022-09-03T20:18:41;24.40;92.60
35603;DHT22;21725;50.836;4.368;2022-09-03T20:24:18;24.40;92.60
35603;DHT22;21725;50.836;4.368;2022-09-03T20:37:57;24.40;93.10
35603;DHT22;21725;50.836;4.368;2022-09-03T20:40:40;24.30;93.00
35603;DHT22;21725;50.836;4.368;2022-09-03T20:49:11;24.20;93.10
35603;DHT22;21725;50.836;4.368;2022-09-03T20:51:54;24.20;93.40
35603;DHT22;21725;50.836;4.368;2022-09-03T20:54:29;24.20;93.30
35603;DHT22;21725;50.836;4.368;2022-09-03T21:13:07;24.00;93.50
35603;DHT22;21725;50.836;4.368;2022-09-03T21:18:55;24.00;93.90
35603;DHT22;21725;50.836;4.368;2022-09-03T21:24:04;23.90;93.80
35603;DHT22;21725;50.836;4.368;2022-09-03T21:26:34;23.90;93.00
35603;DHT22;21725;50.836;4.368;2022-09-03T21:29:24;23.90;93.00
35603;DHT22;21725;50.836;4.368;2022-09-03T21:32:15;23.80;92.90
35603;DHT22;21725;50.836;4.368;2022-09-03T21:34:49;23.80;92.90
35603;DHT22;21725;50.836;4.368;2022-09-03T21:37:21;23.70;93.20
35603;DHT22;21725;50.836;4.368;2022-09-03T21:39:54;23.50;93.30
35603;DHT22;21725;50.836;4.368;2022-09-03T21:42:33;23.40;93.50
35603;DHT22;21725;50.836;4.368;2022-09-03T21:47:38;23.40;93.70
35603;DHT22;21725;50.836;4.368;2022-09-03T21:50:18;23.40;93.80
35603;DHT22;21725;50.836;4.368;2022-09-03T21:53:09;23.40;93.90
35603;DHT22;21725;50.836;4.368;2022-09-03T22:01:13;23.20;94.30
35603;DHT22;21725;50.836;4.368;2022-09-03T22:03:41;23.20;94.50
35603;DHT22;21725;50.836;4.368;2022-09-03T22:06:22;23.20;94.70
35603;DHT22;21725;50.836;4.368;2022-09-03T22:29:29;20.90;98.50
35603;DHT22;21725;50.836;4.368;2022-09-03T22:32:07;20.60;99.90
35603;DHT22;21725;50.836;4.368;2022-09-03T22:34:55;20.80;99.90
35603;DHT22;21725;50.836;4.368;2022-09-03T22:40:15;21.60;99.90
35603;DHT22;21725;50.836;4.368;2022-09-03T22:51:04;22.70;97.60
35603;DHT22;21725;50.836;4.368;2022-09-03T22:53:45;22.90;97.30
35603;DHT22;21725;50.836;4.368;2022-09-03T22:56:16;23.00;97.10
35603;DHT22;21725;50.836;4.368;2022-09-03T23:01:26;22.90;97.20
35603;DHT22;21725;50.836;4.368;2022-09-03T23:07:16;23.10;96.90
35603;DHT22;21725;50.836;4.368;2022-09-03T23:09:49;23.10;96.90
35603;DHT22;21725;50.836;4.368;2022-09-03T23:12:38;23.10;97.00
35603;DHT22;21725;50.836;4.368;2022-09-03T23:15:06;23.00;97.10
35603;DHT22;21725;50.836;4.368;2022-09-03T23:20:30;22.90;97.30
35603;DHT22;21725;50.836;4.368;2022-09-03T23:23:07;22.90;97.50
35603;DHT22;21725;50.836;4.368;2022-09-03T23:25:41;22.90;97.50
35603;DHT22;21725;50.836;4.368;2022-09-03T23:30:48;23.00;97.40
35603;DHT22;21725;50.836;4.368;2022-09-03T23:33:14;22.90;97.40
35603;DHT22;21725;50.836;4.368;2022-09-03T23:36:00;22.80;97.60
35603;DHT22;21725;50.836;4.368;2022-09-03T23:38:47;22.80;97.70
35603;DHT22;21725;50.836;4.368;2022-09-03T23:41:25;22.80;97.70
35603;DHT22;21725;50.836;4.368;2022-09-03T23:44:19;22.60;98.00
35603;DHT22;21725;50.836;4.368;2022-09-03T23:50:02;22.60;98.20
